sensor_id;sensor_type;location;lat;lon;timestamp;P1;P2;P0
49570;PMS7003;36970;39.352;20.286;2022-10-16T00:06:48;4.33;4.33;3.00
49570;PMS7003;36970;39.352;20.286;2022-10-16T00:36:50;4.67;4.67;4.00
49570;PMS7003;36970;39.352;20.286;2022-10-16T01:06:54;3.00;3.00;3.00
49570;PMS7003;36970;39.352;20.286;2022-10-16T01:37:09;3.00;2.33;2.33
49570;PMS7003;36970;39.352;20.286;2022-10-16T02:07:16;3.67;3.67;3.00
49570;PMS7003;36970;39.352;20.286;2022-10-16T02:37:18;3.67;3.67;2.67
49570;PMS7003;36970;39.352;20.286;2022-10-16T03:07:21;2.00;2.00;2.00
49570;PMS7003;36970;39.352;20.286;2022-10-16T03:37:23;4.00;4.00;2.00
49570;PMS7003;36970;39.352;20.286;2022-10-16T04:07:26;2.00;2.00;2.00
49570;PMS7003;36970;39.352;20.286;2022-10-16T04:37:28;3.67;3.67;3.00
49570;PMS7003;36970;39.352;20.286;2022-10-16T05:07:30;3.33;3.33;3.00
49570;PMS7003;36970;39.352;20.286;2022-10-16T05:37:33;3.33;3.33;2.00
49570;PMS7003;36970;39.352;20.286;2022-10-16T06:07:36;4.33;2.67;2.67
49570;PMS7003;36970;39.352;20.286;2022-10-16T06:37:39;5.00;5.00;4.00
49570;PMS7003;36970;39.352;20.286;2022-10-16T07:07:42;3.67;3.67;2.33
49570;PMS7003;36970;39.352;20.286;2022-10-16T07:37:45;3.33;3.33;2.33
49570;PMS7003;36970;39.352;20.286;2022-10-16T08:07:49;3.33;3.33;2.67
49570;PMS7003;36970;39.352;20.286;2022-10-16T08:37:52;3.33;3.33;3.00
49570;PMS7003;36970;39.352;20.286;2022-10-16T09:07:57;3.33;3.33;3.00
49570;PMS7003;36970;39.352;20.286;2022-10-16T09:38:22;6.33;5.00;4.00
49570;PMS7003;36970;39.352;20.286;2022-10-16T10:08:26;5.33;5.33;3.33
49570;PMS7003;36970;39.352;20.286;2022-10-16T10:38:33;2.33;2.33;2.00
49570;PMS7003;36970;39.352;20.286;2022-10-16T11:08:45;4.00;4.00;2.67
49570;PMS7003;36970;39.352;20.286;2022-10-16T11:38:52;4.00;3.33;2.33
49570;PMS7003;36970;39.352;20.286;2022-10-16T12:09:00;6.00;5.67;3.33
49570;PMS7003;36970;39.352;20.286;2022-10-16T12:39:04;4.00;4.00;3.00
49570;PMS7003;36970;39.352;20.286;2022-10-16T13:09:10;4.33;4.33;3.67
49570;PMS7003;36970;39.352;20.286;2022-10-16T13:39:22;5.00;5.00;4.33
49570;PMS7003;36970;39.352;20.286;2022-10-16T14:09:26;5.00;5.00;3.67
49570;PMS7003;36970;39.352;20.286;2022-10-16T14:39:30;4.00;4.00;3.00
49570;PMS7003;36970;39.352;20.286;2022-10-16T15:09:33;4.67;4.67;3.00
49570;PMS7003;36970;39.352;20.286;2022-10-16T15:39:35;6.00;5.00;3.67
49570;PMS7003;36970;39.352;20.286;2022-10-16T16:09:37;4.00;4.00;3.00
49570;PMS7003;36970;39.352;20.286;2022-10-16T16:39:40;5.00;5.00;4.00
49570;PMS7003;36970;39.352;20.286;2022-10-16T17:09:42;5.00;5.00;4.33
49570;PMS7003;36970;39.352;20.286;2022-10-16T17:39:45;7.00;5.00;3.67
49570;PMS7003;36970;39.352;20.286;2022-10-16T18:09:48;5.33;5.33;4.67
49570;PMS7003;36970;39.352;20.286;2022-10-16T18:39:50;5.33;5.33;3.33
49570;PMS7003;36970;39.352;20.286;2022-10-16T19:09:53;5.00;5.00;4.00
49570;PMS7003;36970;39.352;20.286;2022-10-16T19:39:55;7.00;5.67;4.67
49570;PMS7003;36970;39.352;20.286;2022-10-16T20:09:57;4.00;4.00;3.33
49570;PMS7003;36970;39.352;20.286;2022-10-16T20:40:00;7.67;7.67;6.00
49570;PMS7003;36970;39.352;20.286;2022-10-16T21:10:03;5.00;5.00;4.00
49570;PMS7003;36970;39.352;20.286;2022-10-16T21:40:06;7.33;7.33;6.67
49570;PMS7003;36970;39.352;20.286;2022-10-16T22:10:10;9.67;8.67;7.00
49570;PMS7003;36970;39.352;20.286;2022-10-16T22:40:12;10.00;10.00;8.33
49570;PMS7003;36970;39.352;20.286;2022-10-16T23:10:15;13.33;11.33;8.00
49570;PMS7003;36970;39.352;20.286;2022-10-16T23:40:17;8.00;8.00;7.33
